Latest Weather Observations for Banana Bank

IDQ60801

Issued at 11:22 pm EST Saturday 25 May 2019 (issued every 10 minutes, with the page automatically refreshed every 10 minutes)

About weather observations | Map of weather stations | Latest weather observations for QLD | Other Formats
Station Details ID: 040925 Name: BANANA BANK NORTH BEACON Lat: -27.53 Lon: 153.33 Height: 7.0 m
Data from the previous 72 hours. | See also: Recent months at Banana Bank
Date/Time
EST
Temp
°C
App
Temp
°C
Dew
Point
°C
Rel
Hum
%
Delta-T
°C
Wind Press
QNH
hPa
Press
MSL
hPa
Rain since
9am
mm
Dir  Spd
km/h
Gust
km/h
Spd
kts
Gust
kts
25/11:00pm - - - - - WNW 7 9 4 5 - - -
25/10:30pm - - - - - W 7 9 4 5 - - -
25/10:00pm - - - - - W 7 9 4 5 - - -
25/09:30pm - - - - - WSW 2 6 1 3 - - -
25/09:00pm - - - - - CALM 0 0 0 0 - - -
25/08:30pm - - - - - CALM 0 0 0 0 - - -
25/08:00pm - - - - - CALM 0 2 0 1 - - -
25/07:30pm - - - - - ENE 6 6 3 3 - - -
25/07:00pm - - - - - ENE 2 4 1 2 - - -
25/06:30pm - - - - - ENE 4 6 2 3 - - -
25/06:00pm - - - - - ENE 7 7 4 4 - - -
25/05:30pm - - - - - ENE 6 7 3 4 - - -
25/05:00pm - - - - - E 7 11 4 6 - - -
25/04:30pm - - - - - E 11 13 6 7 - - -
25/04:00pm - - - - - E 11 13 6 7 - - -
25/03:30pm - - - - - ESE 7 9 4 5 - - -
25/03:00pm - - - - - W 2 4 1 2 - - -
25/02:30pm - - - - - ESE 2 2 1 1 - - -
25/02:00pm - - - - - ESE 2 4 1 2 - - -
25/01:30pm - - - - - ESE 4 6 2 3 - - -
25/01:00pm - - - - - SSE 6 6 3 3 - - -
25/12:30pm - - - - - SE 2 4 1 2 - - -
25/12:00pm - - - - - SSE 4 4 2 2 - - -
25/11:30am - - - - - SSE 4 4 2 2 - - -
25/11:00am - - - - - SSE 6 7 3 4 - - -
25/10:30am - - - - - SE 7 9 4 5 - - -
25/10:00am - - - - - SSE 6 7 3 4 - - -
25/09:30am - - - - - SSW 4 4 2 2 - - -
25/09:00am - - - - - SW 4 6 2 3 - - -
25/08:30am - - - - - SW 4 6 2 3 - - -
25/08:00am - - - - - SSW 6 7 3 4 - - -
25/07:30am - - - - - SW 13 17 7 9 - - -
25/07:00am - - - - - SW 9 11 5 6 - - -
25/06:30am - - - - - SW 11 13 6 7 - - -
25/06:00am - - - - - SW 6 7 3 4 - - -
25/05:30am - - - - - SSW 7 7 4 4 - - -
25/05:00am - - - - - SSW 6 7 3 4 - - -
25/04:30am - - - - - S 11 15 6 8 - - -
25/04:00am - - - - - SW 13 15 7 8 - - -
25/03:30am - - - - - SSW 9 13 5 7 - - -
25/03:00am - - - - - SSW 7 9 4 5 - - -
25/02:30am - - - - - SW 4 4 2 2 - - -
25/02:00am - - - - - SSW 6 7 3 4 - - -
25/01:30am - - - - - SW 7 9 4 5 - - -
25/01:00am - - - - - SSW 9 11 5 6 - - -
25/12:30am - - - - - S 9 11 5 6 - - -
25/12:00am - - - - - S 9 11 5 6 - - -
 
Date/Time
EST
Temp
°C
App
Temp
°C
Dew
Point
°C
Rel
Hum
%
Delta-T
°C
Wind Press
QNH
hPa
Press
MSL
hPa
Rain since
9am
mm
Dir  Spd
km/h
Gust
km/h
Spd
kts
Gust
kts
24/11:30pm - - - - - S 11 13 6 7 - - -
24/11:00pm - - - - - SSW 13 15 7 8 - - -
24/10:30pm - - - - - SSW 13 17 7 9 - - -
24/10:00pm - - - - - S 11 13 6 7 - - -
24/09:30pm - - - - - S 11 13 6 7 - - -
24/09:00pm - - - - - S 11 13 6 7 - - -
24/08:30pm - - - - - SSE 9 11 5 6 - - -
24/08:00pm - - - - - SE 9 11 5 6 - - -
24/07:30pm - - - - - SE 9 11 5 6 - - -
24/07:00pm - - - - - SSE 11 15 6 8 - - -
24/06:30pm - - - - - SSE 11 13 6 7 - - -
24/06:00pm - - - - - SE 13 15 7 8 - - -
24/05:30pm - - - - - SE 15 15 8 8 - - -
24/05:00pm - - - - - SE 15 17 8 9 - - -
24/04:30pm - - - - - SSE 15 19 8 10 - - -
24/04:00pm - - - - - SSE 17 19 9 10 - - -
24/03:30pm - - - - - SE 15 17 8 9 - - -
24/03:00pm - - - - - SE 17 20 9 11 - - -
24/02:30pm - - - - - SE 17 20 9 11 - - -
24/02:00pm - - - - - SSE 19 22 10 12 - - -
24/01:30pm - - - - - SSE 20 24 11 13 - - -
24/01:00pm - - - - - SE 17 22 9 12 - - -
24/12:30pm - - - - - SE 15 19 8 10 - - -
24/12:00pm - - - - - SE 17 19 9 10 - - -
24/11:30am - - - - - SSE 17 20 9 11 - - -
24/11:00am - - - - - SSE 17 19 9 10 - - -
24/10:30am - - - - - S 22 28 12 15 - - -
24/10:00am - - - - - S 19 22 10 12 - - -
24/09:30am - - - - - S 17 20 9 11 - - -
24/09:00am - - - - - S 19 22 10 12 - - -
24/08:30am - - - - - SSW 19 20 10 11 - - -
24/08:00am - - - - - SSW 13 15 7 8 - - -
24/07:30am - - - - - SW 9 11 5 6 - - -
24/07:00am - - - - - SW 15 17 8 9 - - -
24/06:30am - - - - - SW 13 15 7 8 - - -
24/06:00am - - - - - SW 15 17 8 9 - - -
24/05:30am - - - - - SSW 15 17 8 9 - - -
24/05:00am - - - - - SSW 17 19 9 10 - - -
24/04:30am - - - - - SSW 17 20 9 11 - - -
24/04:00am - - - - - SSW 17 19 9 10 - - -
24/03:30am - - - - - SW 17 19 9 10 - - -
24/03:00am - - - - - SW 15 20 8 11 - - -
24/02:30am - - - - - SW 13 15 7 8 - - -
24/02:00am - - - - - SSW 17 20 9 11 - - -
24/01:30am - - - - - SW 13 15 7 8 - - -
24/01:00am - - - - - SSE 13 19 7 10 - - -
24/12:30am - - - - - S 11 13 6 7 - - -
24/12:00am - - - - - S 17 19 9 10 - - -
 
Date/Time
EST
Temp
°C
App
Temp
°C
Dew
Point
°C
Rel
Hum
%
Delta-T
°C
Wind Press
QNH
hPa
Press
MSL
hPa
Rain since
9am
mm
Dir  Spd
km/h
Gust
km/h
Spd
kts
Gust
kts
23/11:30pm - - - - - S 20 24 11 13 - - -
23/11:00pm - - - - - SSW 19 20 10 11 - - -
23/10:30pm - - - - - SSW 13 17 7 9 - - -
23/10:00pm - - - - - S 11 15 6 8 - - -
23/09:30pm - - - - - SSE 15 20 8 11 - - -
23/09:00pm - - - - - SE 24 30 13 16 - - -
23/08:30pm - - - - - SE 19 22 10 12 - - -
23/08:00pm - - - - - S 15 19 8 10 - - -
23/07:30pm - - - - - SSE 11 15 6 8 - - -
23/07:00pm - - - - - S 11 13 6 7 - - -
23/06:30pm - - - - - SSE 11 15 6 8 - - -
23/06:00pm - - - - - SE 13 15 7 8 - - -
23/05:30pm - - - - - SE 15 17 8 9 - - -
23/05:00pm - - - - - SE 17 20 9 11 - - -
23/04:30pm - - - - - SE 13 19 7 10 - - -
23/04:00pm - - - - - ESE 17 20 9 11 - - -
23/03:30pm - - - - - ESE 22 28 12 15 - - -
23/03:00pm - - - - - SE 22 26 12 14 - - -
23/02:30pm - - - - - SE 15 17 8 9 - - -
23/02:00pm - - - - - SSE 26 32 14 17 - - -
23/01:30pm - - - - - SE 30 37 16 20 - - -
23/01:00pm - - - - - SSE 19 22 10 12 - - -
23/12:30pm - - - - - SSE 22 26 12 14 - - -
23/12:00pm - - - - - SSE 19 22 10 12 - - -
23/11:30am - - - - - SSE 20 24 11 13 - - -
23/11:00am - - - - - SSE 17 24 9 13 - - -
23/10:30am - - - - - S 7 9 4 5 - - -
23/10:00am - - - - - S 17 19 9 10 - - -
23/09:30am - - - - - S 15 19 8 10 - - -
23/09:00am - - - - - S 15 19 8 10 - - -
23/08:30am - - - - - SSE 15 17 8 9 - - -
23/08:00am - - - - - S 17 20 9 11 - - -
23/07:30am - - - - - S 19 22 10 12 - - -
23/07:00am - - - - - S 19 22 10 12 - - -
23/06:30am - - - - - S 19 22 10 12 - - -
23/06:00am - - - - - SSW 19 22 10 12 - - -
23/05:30am - - - - - SSW 19 22 10 12 - - -
23/05:00am - - - - - S 19 22 10 12 - - -
23/04:30am - - - - - SSW 17 19 9 10 - - -
23/04:00am - - - - - S 19 20 10 11 - - -
23/03:30am - - - - - SSW 17 20 9 11 - - -
23/03:00am - - - - - S 17 20 9 11 - - -
23/02:30am - - - - - S 17 19 9 10 - - -
23/02:00am - - - - - S 19 20 10 11 - - -
23/01:30am - - - - - S 20 22 11 12 - - -
23/01:00am - - - - - S 17 19 9 10 - - -
23/12:30am - - - - - S 17 20 9 11 - - -
23/12:00am - - - - - SSW 15 19 8 10 - - -
 
Date/Time
EST
Temp
°C
App
Temp
°C
Dew
Point
°C
Rel
Hum
%
Delta-T
°C
Wind Press
QNH
hPa
Press
MSL
hPa
Rain since
9am
mm
Dir  Spd
km/h
Gust
km/h
Spd
kts
Gust
kts
22/11:30pm - - - - - S 17 20 9 11 - - -

Other formats

Comma delimited format used in spreadsheet applications
http://www.bom.gov.au/fwo/IDQ60801/IDQ60801.94591.axf

JavaScript Object Notation format (JSON) in row-major order
http://www.bom.gov.au/fwo/IDQ60801/IDQ60801.94591.json

Data quality

Most of these data are generated automatically and are frequently updated. Quality checks on data are not normally performed. It is possible for incorrect values to appear. Refer to information at About Latest Weather Observations and please check the disclaimer before using these data.